createdAt,value
2022-11-13T07:15:45.217Z,51.90
2022-11-13T07:18:13.284Z,40.90
2022-11-13T07:20:41.402Z,42.13
2022-11-13T07:23:09.848Z,46.87
2022-11-13T07:25:38.087Z,41.23
2022-11-13T07:28:06.737Z,43.00
2022-11-13T07:30:34.777Z,43.20
2022-11-13T07:33:04.876Z,41.90
2022-11-13T07:35:32.934Z,44.47
2022-11-13T07:38:01.061Z,44.57
2022-11-13T07:40:29.113Z,50.90
2022-11-13T07:43:00.611Z,41.53
2022-11-13T07:45:29.365Z,38.37
2022-11-13T07:48:00.637Z,37.43
2022-11-13T07:50:31.268Z,35.23
2022-11-13T07:53:00.362Z,37.83
2022-11-13T07:55:30.019Z,39.87
2022-11-13T07:57:59.279Z,46.50
2022-11-13T08:00:28.141Z,45.30
2022-11-13T08:02:56.472Z,51.57
2022-11-13T08:05:24.802Z,50.43
2022-11-13T08:07:54.419Z,52.43
2022-11-13T08:10:22.552Z,49.80
2022-11-13T08:12:50.605Z,42.80
2022-11-13T08:15:18.882Z,39.67
2022-11-13T08:17:54.088Z,40.43
2022-11-13T08:20:22.172Z,41.07
2022-11-13T08:22:50.284Z,38.17
2022-11-13T08:25:20.379Z,40.77
2022-11-13T08:27:50.770Z,41.87
2022-11-13T08:30:19.246Z,45.90
2022-11-13T08:32:48.760Z,46.30
2022-11-13T08:35:19.710Z,39.30
2022-11-13T08:37:48.654Z,44.27
2022-11-13T08:40:16.947Z,38.37
2022-11-13T08:42:46.606Z,37.20
2022-11-13T08:45:14.672Z,36.40
2022-11-13T08:47:42.777Z,36.97
2022-11-13T08:50:11.174Z,36.53
2022-11-13T08:52:39.321Z,38.10
2022-11-13T08:55:07.960Z,36.50
2022-11-13T08:57:36.123Z,34.03
2022-11-13T09:00:06.308Z,36.17
2022-11-13T09:02:34.333Z,34.97
2022-11-13T09:05:03.060Z,35.07
2022-11-13T09:07:31.312Z,32.37
2022-11-13T09:09:59.503Z,34.77
2022-11-13T09:12:27.641Z,31.37
2022-11-13T09:14:55.959Z,31.77
2022-11-13T09:17:27.551Z,30.97
2022-11-13T09:19:58.390Z,29.73
2022-11-13T09:22:28.945Z,34.03
2022-11-13T09:24:57.072Z,31.10
2022-11-13T09:27:25.424Z,27.47
2022-11-13T09:29:55.682Z,28.40
2022-11-13T09:32:25.475Z,30.40
2022-11-13T09:34:53.555Z,32.57
2022-11-13T09:37:21.626Z,30.07
2022-11-13T09:39:49.732Z,35.03
2022-11-13T09:42:21.882Z,28.63
2022-11-13T09:44:53.725Z,28.27
2022-11-13T09:47:25.980Z,33.70
2022-11-13T09:50:01.365Z,28.60
2022-11-13T09:52:33.924Z,31.50
2022-11-13T09:55:04.342Z,27.40
2022-11-13T09:57:38.811Z,30.60
2022-11-13T10:00:12.032Z,32.17
2022-11-13T10:02:49.524Z,30.63
2022-11-13T10:05:30.060Z,31.23
2022-11-13T10:08:07.060Z,28.77
2022-11-13T10:10:55.486Z,28.07
2022-11-13T10:13:30.088Z,31.80
2022-11-13T10:16:16.231Z,22.63
2022-11-13T10:18:45.700Z,28.13
2022-11-13T10:21:23.226Z,26.63
2022-11-13T10:23:56.336Z,23.03
2022-11-13T10:26:28.105Z,22.73
2022-11-13T10:29:02.567Z,23.93
2022-11-13T10:31:30.746Z,24.67
2022-11-13T10:33:58.993Z,23.03
2022-11-13T10:36:50.719Z,27.80
2022-11-13T10:39:19.135Z,23.77
2022-11-13T10:41:49.286Z,23.50
2022-11-13T10:44:30.976Z,22.33
2022-11-13T10:47:07.449Z,22.87
2022-11-13T10:49:35.529Z,21.83
2022-11-13T10:52:10.997Z,23.70
2022-11-13T10:54:39.535Z,23.13
2022-11-13T10:57:26.060Z,25.60
2022-11-13T10:59:54.116Z,25.73
2022-11-13T11:02:24.600Z,23.33
2022-11-13T11:05:03.212Z,22.70
2022-11-13T11:07:40.416Z,29.53
2022-11-13T11:10:23.069Z,26.70
2022-11-13T11:12:55.682Z,28.53
2022-11-13T11:15:28.086Z,23.67
2022-11-13T11:18:01.884Z,26.77
2022-11-13T11:20:43.968Z,24.90
2022-11-13T11:23:23.121Z,24.13
2022-11-13T11:25:57.719Z,27.43
2022-11-13T11:28:32.515Z,23.70
2022-11-13T11:31:12.031Z,24.33
2022-11-13T11:33:51.416Z,20.80
2022-11-13T11:36:32.216Z,26.77
2022-11-13T11:39:13.786Z,23.03
2022-11-13T11:41:45.235Z,19.00
2022-11-13T11:44:19.552Z,20.17
2022-11-13T11:46:47.682Z,19.73
2022-11-13T11:49:16.328Z,21.57
2022-11-13T11:51:57.838Z,20.53
2022-11-13T11:54:40.935Z,19.80
2022-11-13T11:57:20.281Z,19.97
2022-11-13T12:00:02.949Z,17.35
2022-11-13T12:02:52.092Z,18.33
2022-11-13T12:05:25.123Z,16.63
2022-11-13T12:08:13.274Z,17.73
2022-11-13T12:10:51.420Z,18.77
2022-11-13T12:13:29.426Z,16.67
2022-11-13T12:16:05.615Z,16.35
2022-11-13T12:18:46.417Z,17.67
2022-11-13T12:21:24.032Z,16.70
2022-11-13T12:24:12.649Z,19.27
2022-11-13T12:26:51.515Z,17.67
2022-11-13T12:29:34.358Z,19.70
2022-11-13T12:32:15.288Z,16.35
2022-11-13T12:34:48.091Z,16.05
2022-11-13T12:37:23.539Z,15.52
2022-11-13T12:39:58.039Z,16.20
2022-11-13T12:42:34.377Z,15.40
2022-11-13T12:45:11.323Z,14.52
2022-11-13T12:47:39.522Z,14.15
2022-11-13T12:50:25.180Z,14.85
2022-11-13T12:53:01.902Z,16.10
2022-11-13T12:55:32.402Z,24.10
2022-11-13T12:58:10.790Z,22.60
2022-11-13T13:00:42.361Z,16.00
2022-11-13T13:03:28.505Z,18.05
2022-11-13T13:06:10.986Z,19.30
2022-11-13T13:08:55.119Z,19.52
2022-11-13T13:11:31.136Z,19.60
2022-11-13T13:14:17.439Z,18.45
2022-11-13T13:16:45.601Z,18.70
2022-11-13T13:19:28.479Z,17.75
2022-11-13T13:21:57.150Z,21.60
2022-11-13T13:24:34.918Z,18.55
2022-11-13T13:27:03.246Z,19.63
2022-11-13T13:29:35.187Z,18.27
2022-11-13T13:32:17.866Z,16.95
2022-11-13T13:35:00.818Z,17.98
2022-11-13T13:37:37.928Z,17.45
2022-11-13T13:40:17.353Z,19.35
2022-11-13T13:43:02.473Z,17.42
2022-11-13T13:45:41.990Z,19.27
2022-11-13T13:48:13.158Z,21.20
2022-11-13T13:50:45.385Z,19.27
2022-11-13T13:53:19.528Z,20.08
2022-11-13T13:55:50.944Z,18.88
2022-11-13T13:58:24.277Z,18.67
2022-11-13T14:01:20.050Z,18.13
2022-11-13T14:03:48.505Z,19.25
2022-11-13T14:06:22.302Z,18.17
2022-11-13T14:08:50.825Z,20.85
2022-11-13T14:11:21.580Z,17.13
2022-11-13T14:13:49.834Z,19.50
2022-11-13T14:16:19.307Z,17.42
2022-11-13T14:18:47.341Z,18.00
2022-11-13T14:21:18.257Z,14.93
2022-11-13T14:23:50.541Z,12.35
2022-11-13T14:26:20.168Z,11.93
2022-11-13T14:28:54.513Z,10.20
2022-11-13T14:31:30.064Z,10.45
2022-11-13T14:34:01.360Z,13.32
2022-11-13T14:36:32.449Z,8.98
2022-11-13T14:39:00.889Z,10.65
2022-11-13T14:41:35.387Z,9.80
2022-11-13T14:44:04.265Z,9.30
2022-11-13T14:46:37.002Z,9.63
2022-11-13T14:49:12.469Z,8.70
2022-11-13T14:51:40.804Z,9.20
2022-11-13T14:54:24.189Z,8.82
2022-11-13T14:56:53.977Z,10.65
2022-11-13T14:59:28.040Z,11.52
2022-11-13T15:01:58.670Z,11.15
2022-11-13T15:04:28.471Z,11.90
2022-11-13T15:07:00.038Z,12.23
2022-11-13T15:15:17.854Z,16.90
2022-11-13T15:17:46.882Z,18.40
2022-11-13T15:20:17.533Z,17.07
